Portada
METAR-TAF:

METAR-TAF

Aeroports :

Kosrae, Micronèsia

latitud: 05-21N, longitud: 162-57E, altitud: 3 m

METAR: manca

Hora: 22:08 (11:08 UTC)

Pronòstic

L'informe es va fer fa 11 hores i 28 minuts, a les 23:40 UTC
Pronòstic vàlid del 23 a les 00 UTC al 23 a les 24 UTC
Vent 6 kt del Sud/Sud-Est
Visibilitat: 10 km
Escasses núvols a una alçada de 1500 ft
Cel ennuvolat a una alçada de 13000 ft
Cel ennuvolat a una alçada de 25000 ft

TAF: PTSA 222340Z 2300/2324 15006KT P6SM FEW015 BKN130 BKN250

Observacions i pronòstics meteorològics de més de 4000 aeroports (METAR i TAF).

Les estacions disponibles són els punts grocs i vermells al mapa.

Posi el ratolí al punt desitjat per veure el nom de l'estació.

Feu clic per veure les observacions i els pronòstics meteorològics.

Per canviar el mapa: feu clic els botons verds amb una creu de color negre per apropar; al botó verd amb un guió per allunyar la imatge; o en les fletxes verdes per a mapes adjacents.


METAR-TAF: